Time;durP1;ratioP1;P1;durP2;ratioP2;P2;SDS_P1;SDS_P2;PMS_P1;PMS_P2;Temp;Humidity;BMP_temperature;BMP_pressure;BME280_temperature;BME280_humidity;BME280_pressure;Samples;Min_cycle;Max_cycle;Signal;HPM_P1;HPM_P2
2022/12/09 00:01:06;;;;;;;12.60;10.07;;;;;;;6.56;62.56;100600.19;5061126;28;20049;-65
2022/12/09 00:03:35;;;;;;;14.35;9.95;;;;;;;6.53;63.18;100601.41;5054888;28;20182;-66
2022/12/09 00:06:08;;;;;;;14.70;9.95;;;;;;;6.54;63.13;100600.38;5058934;28;20445;-66
2022/12/09 00:08:36;;;;;;;11.82;9.13;;;;;;;6.52;62.71;100602.44;5058132;28;20046;-66
2022/12/09 00:11:05;;;;;;;12.10;9.52;;;;;;;6.51;62.77;100601.63;5061171;28;20113;-66
2022/12/09 00:13:34;;;;;;;14.70;9.90;;;;;;;6.51;62.92;100600.78;5055250;28;20056;-66
2022/12/09 00:16:06;;;;;;;13.13;8.88;;;;;;;6.51;63.14;100598.13;5052267;28;20045;-66
2022/12/09 00:18:34;;;;;;;15.48;10.63;;;;;;;6.51;63.12;100598.94;5055444;28;20426;-66
2022/12/09 00:21:11;;;;;;;14.68;9.05;;;;;;;6.51;62.77;100598.13;5058026;28;20060;-66
2022/12/09 00:23:39;;;;;;;11.95;9.50;;;;;;;6.52;63.11;100594.44;5059771;28;20045;-65
2022/12/09 00:26:07;;;;;;;12.05;9.43;;;;;;;6.48;62.90;100590.50;5054105;28;20056;-66
2022/12/09 00:28:36;;;;;;;13.00;9.65;;;;;;;6.50;62.71;100596.47;5056476;28;20053;-66
2022/12/09 00:31:05;;;;;;;15.27;10.57;;;;;;;6.48;62.89;100591.34;5052694;28;20499;-66
2022/12/09 00:33:34;;;;;;;14.05;9.25;;;;;;;6.48;63.04;100598.53;5057862;28;20154;-66
2022/12/09 00:36:07;;;;;;;12.95;9.07;;;;;;;6.48;62.79;100596.69;5058073;28;20068;-66
2022/12/09 00:38:34;;;;;;;13.30;9.85;;;;;;;6.48;62.94;100596.69;5059407;28;20556;-66
2022/12/09 00:41:03;;;;;;;12.80;9.38;;;;;;;6.48;63.18;100598.53;5059634;28;20063;-66
2022/12/09 00:43:31;;;;;;;13.70;9.23;;;;;;;6.46;63.32;100596.06;5055819;28;20110;-65
2022/12/09 00:46:00;;;;;;;13.88;9.40;;;;;;;6.47;63.05;100603.03;5059116;28;20056;-65
2022/12/09 00:48:29;;;;;;;13.10;10.02;;;;;;;6.47;62.73;100603.03;5056675;28;20045;-65
2022/12/09 00:50:57;;;;;;;12.10;9.07;;;;;;;6.48;63.00;100593.19;5050111;28;20087;-65
2022/12/09 00:53:25;;;;;;;15.82;10.07;;;;;;;6.46;62.80;100596.06;5054979;28;20045;-65
2022/12/09 00:55:53;;;;;;;16.42;9.80;;;;;;;6.43;63.15;100587.63;5056901;28;20060;-65
2022/12/09 00:58:21;;;;;;;13.52;9.55;;;;;;;6.45;63.05;100589.06;5053883;28;20052;-65
2022/12/09 01:00:49;;;;;;;13.68;10.10;;;;;;;6.46;62.94;100595.22;5053911;28;20506;-65
2022/12/09 01:03:19;;;;;;;12.45;9.50;;;;;;;6.45;63.27;100590.91;5055933;28;20056;-66
2022/12/09 01:05:47;;;;;;;11.45;8.93;;;;;;;6.41;63.41;100595.84;5060322;28;20051;-66
2022/12/09 01:08:16;;;;;;;13.65;9.88;;;;;;;6.43;63.34;100596.44;5060185;28;20049;-65
2022/12/09 01:10:45;;;;;;;13.18;10.85;;;;;;;6.44;63.32;100591.94;5059545;28;20072;-65
2022/12/09 01:13:15;;;;;;;15.40;10.10;;;;;;;6.43;62.92;100591.13;5058844;28;20812;-65
2022/12/09 01:15:43;;;;;;;12.85;9.10;;;;;;;6.45;63.09;100601.59;5060167;28;20045;-64
2022/12/09 01:18:12;;;;;;;15.60;10.57;;;;;;;6.45;62.70;100599.75;5060659;28;20052;-65
2022/12/09 01:20:41;;;;;;;14.23;9.57;;;;;;;6.45;63.17;100602.41;5058888;28;20083;-65
2022/12/09 01:23:09;;;;;;;12.88;9.38;;;;;;;6.43;63.44;100604.47;5063110;28;20079;-65
2022/12/09 01:25:37;;;;;;;12.02;9.40;;;;;;;6.41;63.34;100603.84;5060059;28;20148;-65
2022/12/09 01:28:05;;;;;;;12.00;9.57;;;;;;;6.41;63.09;100606.50;5060386;28;20053;-65
2022/12/09 01:30:33;;;;;;;12.75;9.25;;;;;;;6.39;62.94;100603.22;5057564;28;20056;-66
2022/12/09 01:33:01;;;;;;;11.23;9.48;;;;;;;6.40;63.21;100599.53;5063289;28;20049;-67
2022/12/09 01:35:28;;;;;;;13.02;10.00;;;;;;;6.38;63.03;100596.22;5056484;28;20067;-65
2022/12/09 01:37:58;;;;;;;13.23;10.25;;;;;;;6.40;63.47;100598.69;5061260;28;20048;-66
2022/12/09 01:40:25;;;;;;;11.93;9.15;;;;;;;6.40;62.88;100599.53;5060153;28;20088;-66
2022/12/09 01:42:53;;;;;;;15.30;9.90;;;;;;;6.39;63.32;100602.41;5061077;28;20049;-65
2022/12/09 01:45:42;;;;;;;13.32;9.80;;;;;;;6.38;63.11;100601.56;5057543;28;20061;-65
2022/12/09 01:48:13;;;;;;;12.68;9.00;;;;;;;6.37;63.20;100602.59;5061090;28;20103;-66
2022/12/09 01:50:46;;;;;;;12.73;9.60;;;;;;;6.36;63.28;100606.28;5060688;28;20076;-66
2022/12/09 01:53:18;;;;;;;16.67;9.25;;;;;;;6.36;62.97;100605.47;5057367;28;20160;-66
2022/12/09 01:55:46;;;;;;;12.10;9.23;;;;;;;6.36;63.03;100608.97;5061717;28;20037;-65
2022/12/09 01:58:15;;;;;;;12.50;9.43;;;;;;;6.33;63.16;100606.69;5064730;28;20060;-66
2022/12/09 02:00:44;;;;;;;11.07;9.13;;;;;;;6.32;63.39;100601.56;5059442;28;20076;-64
2022/12/09 02:03:12;;;;;;;13.50;10.07;;;;;;;6.32;63.43;100598.88;5065184;28;20053;-66
2022/12/09 02:05:40;;;;;;;12.57;9.40;;;;;;;6.32;63.30;100599.69;5060006;28;20037;-65
2022/12/09 02:08:11;;;;;;;13.00;8.90;;;;;;;6.33;63.49;100595.19;5062462;28;20053;-66
2022/12/09 02:10:51;;;;;;;12.23;9.38;;;;;;;6.32;63.28;100605.03;5056609;28;20071;-66
2022/12/09 02:13:25;;;;;;;13.90;9.10;;;;;;;6.32;63.46;100605.03;5063007;28;20049;-65
2022/12/09 02:15:54;;;;;;;12.52;9.45;;;;;;;6.33;63.18;100605.88;5060253;28;20057;-65
2022/12/09 02:18:29;;;;;;;13.25;9.20;;;;;;;6.32;63.29;100601.56;5063369;28;20511;-65
2022/12/09 02:21:01;;;;;;;15.70;10.32;;;;;;;6.31;63.23;100603.41;5057086;28;20406;-65
2022/12/09 02:23:37;;;;;;;14.85;9.65;;;;;;;6.30;63.35;100600.94;5063060;28;20048;-65
2022/12/09 02:26:16;;;;;;;15.10;10.43;;;;;;;6.29;63.36;100605.44;5060127;28;20065;-65
2022/12/09 02:29:03;;;;;;;14.43;9.40;;;;;;;6.30;63.42;100600.94;5054603;28;20058;-65
2022/12/09 02:31:42;;;;;;;;;;;;;;;6.30;63.32;100598.25;5062925;28;20057;-65
2022/12/09 02:34:14;;;;;;;15.20;9.73;;;;;;;6.30;63.29;100598.25;5055551;28;19974;-64
2022/12/09 02:36:51;;;;;;;15.40;10.15;;;;;;;6.31;63.48;100597.25;5059580;28;20482;-66
2022/12/09 02:39:23;;;;;;;13.65;10.45;;;;;;;6.29;63.56;100589.44;5061171;28;20077;-66
2022/12/09 02:41:53;;;;;;;15.15;11.35;;;;;;;6.29;63.38;100589.44;5048254;28;20049;-65
2022/12/09 02:44:24;;;;;;;14.23;10.75;;;;;;;6.30;63.56;100591.06;5062682;28;20055;-65
2022/12/09 02:46:53;;;;;;;17.25;12.05;;;;;;;6.27;63.67;100588.81;5058419;28;20051;-65
2022/12/09 02:49:25;;;;;;;21.55;12.52;;;;;;;6.28;63.76;100593.13;5059940;28;20114;-66
2022/12/09 02:51:54;;;;;;;21.40;12.75;;;;;;;6.28;63.43;100598.47;5059774;28;20053;-65
2022/12/09 02:54:23;;;;;;;17.17;11.68;;;;;;;6.29;63.41;100585.94;5064186;28;20053;-65
2022/12/09 02:56:55;;;;;;;16.13;11.63;;;;;;;6.28;63.64;100586.97;5062004;28;20076;-65
2022/12/09 02:59:23;;;;;;;14.55;10.88;;;;;;;6.27;63.94;100587.97;5053254;28;20080;-65
2022/12/09 03:02:00;;;;;;;19.92;11.52;;;;;;;6.27;63.87;100588.81;5060765;28;20330;-66
2022/12/09 03:04:31;;;;;;;18.55;11.77;;;;;;;6.28;63.34;100590.44;5050709;28;20057;-65
2022/12/09 03:07:11;;;;;;;19.05;12.48;;;;;;;6.28;63.51;100586.97;5060528;28;20041;-65
2022/12/09 03:09:45;;;;;;;17.40;12.30;;;;;;;6.28;63.44;100582.44;5057495;28;20431;-65
2022/12/09 03:12:17;;;;;;;19.60;13.50;;;;;;;6.30;63.53;100582.25;5055726;28;20056;-66
2022/12/09 03:14:49;;;;;;;24.02;14.25;;;;;;;6.28;63.49;100592.28;5053288;28;20041;-66
2022/12/09 03:17:21;;;;;;;21.38;13.23;;;;;;;6.25;63.54;100588.19;5061470;28;20044;-66
2022/12/09 03:19:55;;;;;;;20.33;13.52;;;;;;;6.22;63.53;100575.25;5060311;28;20037;-66
2022/12/09 03:22:27;;;;;;;21.02;13.95;;;;;;;6.23;63.90;100578.72;5063363;28;20080;-66
2022/12/09 03:24:59;;;;;;;22.25;14.10;;;;;;;6.20;63.28;100572.78;5056909;28;20046;-66
2022/12/09 03:27:34;;;;;;;22.50;14.68;;;;;;;6.24;63.74;100572.38;5050568;28;20060;-65
2022/12/09 03:30:05;;;;;;;22.92;14.85;;;;;;;6.24;63.83;100572.38;5059039;28;20083;-65
2022/12/09 03:32:37;;;;;;;23.05;15.07;;;;;;;6.23;63.66;100571.53;5053556;28;20478;-65
2022/12/09 03:35:12;;;;;;;22.73;15.63;;;;;;;6.25;63.93;100566.84;5054772;28;20061;-65
2022/12/09 03:37:44;;;;;;;23.10;15.77;;;;;;;6.26;63.70;100573.00;5058547;28;20045;-64
2022/12/09 03:40:16;;;;;;;22.70;15.80;;;;;;;6.24;63.91;100570.53;5060583;28;20059;-65
2022/12/09 03:42:50;;;;;;;26.40;15.73;;;;;;;6.25;63.73;100568.69;5057344;28;20045;-66
2022/12/09 03:45:22;;;;;;;25.90;16.33;;;;;;;6.22;63.85;100558.41;5054260;28;20059;-65
2022/12/09 03:47:51;;;;;;;26.77;15.68;;;;;;;6.24;63.69;100561.69;5062037;28;20418;-66
2022/12/09 03:50:22;;;;;;;21.48;14.93;;;;;;;6.26;63.48;100559.66;5063239;28;20470;-65
2022/12/09 03:52:53;;;;;;;28.25;16.02;;;;;;;6.24;63.63;100567.03;5064586;28;20073;-66
2022/12/09 03:55:33;;;;;;;22.33;15.70;;;;;;;6.25;63.87;100563.34;5062652;28;20049;-65
2022/12/09 03:58:05;;;;;;;26.75;16.70;;;;;;;6.24;63.91;100564.38;5058705;28;20048;-67
2022/12/09 04:00:36;;;;;;;25.17;15.63;;;;;;;6.24;64.23;100561.69;5062120;28;20049;-65
2022/12/09 04:03:04;;;;;;;25.30;16.15;;;;;;;6.22;63.98;100559.22;5059088;28;20072;-66
2022/12/09 04:05:34;;;;;;;31.67;17.52;;;;;;;6.24;63.81;100573.19;5058612;28;20474;-65
2022/12/09 04:08:02;;;;;;;26.75;15.95;;;;;;;6.23;63.70;100571.53;5058678;28;20045;-65
2022/12/09 04:10:30;;;;;;;25.00;16.50;;;;;;;6.21;64.15;100565.59;5062478;28;20049;-66
2022/12/09 04:12:57;;;;;;;28.23;16.92;;;;;;;6.22;63.88;100555.75;5060292;28;20076;-66
2022/12/09 04:15:25;;;;;;;31.50;19.08;;;;;;;6.19;63.79;100551.63;5062234;28;20059;-65
2022/12/09 04:17:53;;;;;;;27.25;17.35;;;;;;;6.22;63.85;100558.41;5060863;28;20041;-65
2022/12/09 04:20:21;;;;;;;31.15;17.90;;;;;;;6.23;63.97;100554.72;5054459;28;20049;-65
2022/12/09 04:22:50;;;;;;;25.92;16.77;;;;;;;6.25;63.83;100558.00;5061754;28;20064;-65
2022/12/09 04:25:18;;;;;;;30.83;17.83;;;;;;;6.24;63.75;100553.69;5053871;28;20072;-66
2022/12/09 04:27:46;;;;;;;29.33;17.55;;;;;;;6.24;63.73;100554.50;5061917;28;20045;-65
2022/12/09 04:30:14;;;;;;;33.58;19.25;;;;;;;6.23;63.95;100550.19;5056724;28;20053;-65
2022/12/09 04:32:42;;;;;;;31.90;18.98;;;;;;;6.22;63.97;100550.41;5062282;28;20160;-65
2022/12/09 04:35:10;;;;;;;33.88;18.98;;;;;;;6.22;63.75;100550.41;5049478;28;20052;-65
2022/12/09 04:37:38;;;;;;;32.08;18.50;;;;;;;6.20;63.92;100551.44;5060346;28;20065;-65
2022/12/09 04:40:08;;;;;;;31.70;18.73;;;;;;;6.19;63.79;100548.97;5056437;28;20063;-66
2022/12/09 04:42:37;;;;;;;31.52;19.50;;;;;;;6.16;64.11;100547.50;5061471;28;20040;-65
2022/12/09 04:45:06;;;;;;;30.75;18.98;;;;;;;6.15;64.03;100553.03;5062029;28;20080;-65
2022/12/09 04:47:34;;;;;;;29.90;18.83;;;;;;;6.14;64.00;100541.56;5063663;28;20048;-65
2022/12/09 04:50:03;;;;;;;33.13;19.35;;;;;;;6.14;63.86;100544.22;5063836;28;20152;-66
2022/12/09 04:52:32;;;;;;;33.35;19.95;;;;;;;6.14;64.14;100546.88;5064393;28;20041;-65
2022/12/09 04:55:00;;;;;;;33.17;19.42;;;;;;;6.15;64.22;100550.38;5063154;28;20075;-65
2022/12/09 04:57:29;;;;;;;32.53;20.02;;;;;;;6.16;64.07;100552.03;5057490;28;20169;-65
2022/12/09 04:59:57;;;;;;;36.83;19.58;;;;;;;6.17;63.90;100551.00;5060618;28;20059;-65
2022/12/09 05:02:25;;;;;;;32.60;19.95;;;;;;;6.16;64.14;100546.69;5061384;28;20064;-64
2022/12/09 05:04:53;;;;;;;33.58;18.60;;;;;;;6.16;63.54;100552.03;5055985;28;20053;-65
2022/12/09 05:07:22;;;;;;;32.72;19.20;;;;;;;6.11;63.61;100544.63;5061816;28;20856;-65
2022/12/09 05:09:50;;;;;;;33.20;19.45;;;;;;;6.15;64.18;100542.38;5065087;28;20105;-65
2022/12/09 05:12:18;;;;;;;36.53;19.63;;;;;;;6.16;64.00;100544.03;5063071;28;20049;-65
2022/12/09 05:14:47;;;;;;;32.05;20.15;;;;;;;6.17;63.60;100546.50;5066086;28;20499;-66
2022/12/09 05:17:15;;;;;;;34.17;20.55;;;;;;;6.08;63.88;100523.69;5063110;28;20098;-65
2022/12/09 05:19:43;;;;;;;35.50;19.40;;;;;;;6.17;63.99;100546.50;5062533;28;20140;-65
2022/12/09 05:22:11;;;;;;;32.92;19.17;;;;;;;6.17;63.90;100543.00;5053211;28;20064;-65
2022/12/09 05:24:39;;;;;;;31.55;19.27;;;;;;;6.17;64.08;100548.34;5059499;28;20049;-64
2022/12/09 05:27:07;;;;;;;32.83;20.80;;;;;;;6.17;63.88;100551.00;5057321;28;20060;-65
2022/12/09 05:29:35;;;;;;;30.08;18.77;;;;;;;6.15;63.84;100542.38;5063549;28;20055;-66
2022/12/09 05:32:05;;;;;;;33.75;20.38;;;;;;;6.14;64.25;100548.72;5063199;28;20060;-66
2022/12/09 05:34:33;;;;;;;33.28;20.63;;;;;;;6.13;63.94;100542.56;5060265;28;20053;-66
2022/12/09 05:37:01;;;;;;;31.38;19.83;;;;;;;6.11;64.02;100544.63;5061030;28;20045;-66
2022/12/09 05:39:29;;;;;;;32.42;20.23;;;;;;;6.10;64.13;100547.50;5061896;28;20041;-66
2022/12/09 05:41:56;;;;;;;36.92;20.27;;;;;;;6.08;63.95;100542.34;5059038;28;20053;-66
2022/12/09 05:44:24;;;;;;;33.38;22.25;;;;;;;6.08;63.40;100545.03;5054593;28;20129;-66
2022/12/09 05:46:52;;;;;;;36.28;20.35;;;;;;;6.11;63.85;100538.47;5062819;28;20052;-66
2022/12/09 05:49:22;;;;;;;34.38;21.10;;;;;;;6.10;63.71;100536.81;5057268;28;20045;-66
2022/12/09 05:51:50;;;;;;;37.55;20.23;;;;;;;6.10;63.61;100542.97;5048635;28;20108;-66
2022/12/09 05:54:18;;;;;;;36.30;20.80;;;;;;;6.13;63.55;100550.56;5061040;28;20151;-66
2022/12/09 05:56:46;;;;;;;33.58;20.55;;;;;;;6.15;63.48;100550.38;5060803;28;20071;-66
2022/12/09 05:59:15;;;;;;;36.13;21.42;;;;;;;6.14;63.49;100548.72;5061362;28;20049;-66
2022/12/09 06:01:43;;;;;;;32.92;19.50;;;;;;;6.12;63.50;100548.94;5063041;28;20061;-66
2022/12/09 06:04:11;;;;;;;30.98;19.77;;;;;;;6.19;63.43;100544.44;5058183;28;20437;-66
2022/12/09 06:06:41;;;;;;;34.05;19.85;;;;;;;6.36;63.58;100541.41;5059301;28;20052;-66
2022/12/09 06:09:10;;;;;;;36.72;19.48;;;;;;;6.50;62.37;100538.56;5056872;28;20045;-66
2022/12/09 06:11:39;;;;;;;33.63;20.05;;;;;;;6.63;62.26;100531.59;5061098;28;20111;-64
2022/12/09 06:14:08;;;;;;;36.28;20.40;;;;;;;6.80;61.50;100532.84;5057098;28;20045;-65
2022/12/09 06:16:37;;;;;;;34.00;19.33;;;;;;;6.95;60.79;100527.28;5061570;28;20065;-65
2022/12/09 06:19:06;;;;;;;30.98;20.33;;;;;;;7.15;60.28;100530.75;5064594;28;20071;-65
2022/12/09 06:21:34;;;;;;;32.50;19.27;;;;;;;7.29;60.18;100534.22;5053632;28;20094;-65
2022/12/09 06:24:05;;;;;;;31.40;19.05;;;;;;;7.36;59.19;100540.41;5059964;28;20135;-65
2022/12/09 06:26:33;;;;;;;29.55;19.27;;;;;;;7.32;59.34;100533.81;5058269;28;20083;-65
2022/12/09 06:29:01;;;;;;;34.83;20.33;;;;;;;7.14;59.64;100521.91;5063539;28;20449;-66
2022/12/09 06:31:29;;;;;;;26.80;18.98;;;;;;;7.11;60.38;100532.19;5059767;28;20098;-66
2022/12/09 06:33:58;;;;;;;33.65;20.15;;;;;;;7.01;60.76;100539.81;5059945;28;20049;-69
2022/12/09 06:36:28;;;;;;;33.60;20.17;;;;;;;6.90;61.26;100535.94;5057526;28;20041;-67
2022/12/09 06:38:58;;;;;;;32.97;20.02;;;;;;;6.83;61.42;100543.13;5061117;28;20050;-65
2022/12/09 06:41:36;;;;;;;33.35;20.95;;;;;;;6.75;61.60;100540.66;5062875;28;20080;-66
2022/12/09 06:44:04;;;;;;;30.67;19.95;;;;;;;6.68;61.89;100545.16;5052670;28;20045;-66
2022/12/09 06:46:32;;;;;;;29.60;17.63;;;;;;;6.61;62.51;100534.47;5062127;28;20075;-66
2022/12/09 06:49:00;;;;;;;34.17;19.20;;;;;;;6.56;62.12;100531.59;5055628;28;20052;-66
2022/12/09 06:51:28;;;;;;;33.55;19.17;;;;;;;6.48;62.33;100531.78;5060458;28;20059;-66
2022/12/09 06:53:56;;;;;;;31.65;18.80;;;;;;;6.48;62.75;100535.28;5058055;28;20396;-67
2022/12/09 06:56:24;;;;;;;29.33;18.50;;;;;;;6.45;62.37;100534.84;5050165;28;20045;-65
2022/12/09 06:58:54;;;;;;;31.05;19.45;;;;;;;6.43;62.89;100540.41;5064914;28;20045;-70
2022/12/09 07:01:24;;;;;;;28.42;17.33;;;;;;;6.40;62.88;100537.31;5047110;28;20502;-70
2022/12/09 07:03:55;;;;;;;27.60;18.42;;;;;;;6.39;62.90;100546.34;4706348;28;10000000;-67
2022/12/09 07:06:28;;;;;;;35.28;18.88;;;;;;;6.36;63.01;100550.25;5059922;28;20097;-66
2022/12/09 07:08:58;;;;;;;32.75;19.58;;;;;;;6.33;62.89;100541.81;5052848;28;20168;-67
2022/12/09 07:11:26;;;;;;;32.22;19.35;;;;;;;6.33;63.07;100544.47;5058086;28;20087;-70
2022/12/09 07:13:56;;;;;;;34.15;18.70;;;;;;;6.30;62.96;100553.72;5058990;28;20053;-67
2022/12/09 07:16:24;;;;;;;29.65;18.83;;;;;;;6.30;63.25;100552.88;5054017;28;20053;-68
2022/12/09 07:18:53;;;;;;;34.58;21.55;;;;;;;6.20;63.91;100554.09;5058201;28;20052;-69
2022/12/09 07:21:23;;;;;;;36.72;20.77;;;;;;;6.15;63.61;100547.72;5047527;28;20057;-69
2022/12/09 07:23:52;;;;;;;34.05;20.02;;;;;;;6.19;63.71;100556.97;5056969;28;20059;-69
2022/12/09 07:26:21;;;;;;;38.78;21.27;;;;;;;6.16;63.22;100555.50;5060737;28;20443;-68
2022/12/09 07:28:49;;;;;;;34.90;21.13;;;;;;;6.20;63.38;100563.94;5059408;28;20045;-68
2022/12/09 07:31:21;;;;;;;38.08;21.15;;;;;;;6.12;63.87;100562.28;5057550;28;20052;-69
2022/12/09 07:33:50;;;;;;;35.22;21.77;;;;;;;6.09;63.85;100561.84;5049651;28;20482;-69
2022/12/09 07:36:18;;;;;;;35.83;21.42;;;;;;;6.08;64.08;100566.38;5057471;28;20403;-70
2022/12/09 07:38:49;;;;;;;38.60;21.65;;;;;;;6.07;63.63;100563.91;5056834;28;20052;-70
2022/12/09 07:41:17;;;;;;;33.65;20.35;;;;;;;6.06;64.03;100565.75;5057333;28;20063;-69
2022/12/09 07:43:46;;;;;;;35.00;21.13;;;;;;;6.07;63.53;100574.56;5057698;28;20052;-70
2022/12/09 07:46:16;;;;;;;35.33;20.40;;;;;;;6.06;64.03;100572.91;5057138;28;20563;-69
2022/12/09 07:48:46;;;;;;;36.47;22.25;;;;;;;6.08;64.17;100570.88;5056371;28;20271;-68
2022/12/09 07:51:15;;;;;;;36.88;21.50;;;;;;;6.07;63.63;100569.22;5039045;28;20061;-68
2022/12/09 07:53:43;;;;;;;36.97;20.92;;;;;;;6.06;63.99;100575.59;5060548;28;20112;-68
2022/12/09 07:56:14;;;;;;;35.97;20.23;;;;;;;6.06;64.04;100576.41;5056828;28;20053;-66
2022/12/09 07:58:43;;;;;;;34.85;20.80;;;;;;;6.07;63.92;100574.56;5050200;28;20045;-67
2022/12/09 08:01:14;;;;;;;36.15;21.25;;;;;;;6.00;63.62;100563.03;5044994;28;20053;-67
2022/12/09 08:03:42;;;;;;;36.67;20.90;;;;;;;6.06;63.89;100581.75;5059173;28;20048;-68
2022/12/09 08:06:13;;;;;;;35.45;21.00;;;;;;;6.05;63.76;100577.44;5054910;28;20060;-69
2022/12/09 08:08:42;;;;;;;40.80;21.35;;;;;;;6.07;63.96;100579.91;5056244;28;20041;-68
2022/12/09 08:11:12;;;;;;;41.10;21.13;;;;;;;6.06;63.65;100576.41;5046341;28;20083;-67
2022/12/09 08:13:41;;;;;;;38.60;20.83;;;;;;;5.97;63.84;100561.59;5056118;28;20059;-69
2022/12/09 08:16:12;;;;;;;36.75;20.90;;;;;;;6.08;64.10;100576.22;5052477;28;20049;-67
2022/12/09 08:18:41;;;;;;;36.72;20.05;;;;;;;6.08;63.80;100581.53;5059243;28;20049;-67
2022/12/09 08:21:13;;;;;;;41.95;21.27;;;;;;;6.08;63.57;100582.38;5049128;28;20053;-68
2022/12/09 08:23:41;;;;;;;41.33;22.30;;;;;;;6.08;63.75;100578.88;5060437;28;20082;-67
2022/12/09 08:26:10;;;;;;;39.65;21.02;;;;;;;6.09;63.90;100580.53;5059810;28;20151;-68
2022/12/09 08:28:38;;;;;;;36.20;21.55;;;;;;;6.08;63.91;100576.22;5064597;28;20045;-68
2022/12/09 08:31:08;;;;;;;32.22;20.63;;;;;;;6.07;63.61;100582.56;5056963;28;20168;-68
2022/12/09 08:33:37;;;;;;;38.05;21.40;;;;;;;6.06;63.85;100579.06;5058711;28;20059;-68
2022/12/09 08:36:10;;;;;;;33.13;20.80;;;;;;;6.05;63.58;100573.94;5058250;28;20083;-68
2022/12/09 08:38:39;;;;;;;36.83;20.77;;;;;;;6.06;63.71;100572.91;5054398;28;20593;-66
2022/12/09 08:41:10;;;;;;;39.38;22.30;;;;;;;6.06;63.49;100579.06;5061154;28;20080;-66
2022/12/09 08:43:38;;;;;;;38.05;20.50;;;;;;;6.08;63.37;100582.38;5061868;28;20060;-68
2022/12/09 08:46:06;;;;;;;38.40;20.52;;;;;;;6.08;63.96;100584.22;5066331;28;20040;-67
2022/12/09 08:48:36;;;;;;;36.10;21.42;;;;;;;6.03;63.80;100566.13;5061298;28;20560;-67
2022/12/09 08:51:05;;;;;;;38.10;20.80;;;;;;;6.27;62.59;100583.47;5065779;28;20099;-66
2022/12/09 08:53:33;;;;;;;33.03;19.17;;;;;;;6.42;63.38;100577.97;5063084;28;20075;-67
2022/12/09 08:56:10;;;;;;;32.42;19.98;;;;;;;6.59;62.43;100575.75;5066221;28;20091;-67
2022/12/09 08:58:39;;;;;;;32.95;18.95;;;;;;;6.82;61.89;100577.03;5057566;28;20100;-69
2022/12/09 09:01:07;;;;;;;36.03;19.75;;;;;;;6.98;61.22;100570.44;5060308;28;20045;-69
2022/12/09 09:03:35;;;;;;;32.88;18.25;;;;;;;7.13;60.14;100578.25;5063057;28;20061;-69
2022/12/09 09:06:06;;;;;;;32.95;18.67;;;;;;;7.28;59.49;100578.84;5057427;28;20049;-69
2022/12/09 09:08:38;;;;;;;40.22;18.70;;;;;;;7.45;59.55;100579.25;5067748;28;20083;-69
2022/12/09 09:11:10;;;;;;;32.25;18.45;;;;;;;7.60;58.53;100584.38;5066387;28;20037;-69
2022/12/09 09:13:39;;;;;;;28.65;17.27;;;;;;;7.69;58.52;100575.91;5053819;28;20049;-69
2022/12/09 09:16:09;;;;;;;32.35;18.58;;;;;;;7.74;57.42;100568.09;5058068;28;20045;-69
2022/12/09 09:18:38;;;;;;;34.65;18.42;;;;;;;7.92;57.43;100583.47;5051535;28;20108;-69
2022/12/09 09:21:06;;;;;;;30.25;17.35;;;;;;;7.97;57.39;100585.50;5046209;28;20072;-68
2022/12/09 09:23:35;;;;;;;31.20;18.88;;;;;;;8.01;57.03;100586.72;5065958;28;20125;-69
2022/12/09 09:26:03;;;;;;;33.88;17.70;;;;;;;8.07;57.24;100585.88;5065444;28;20053;-69
2022/12/09 09:28:33;;;;;;;29.42;17.65;;;;;;;7.95;57.19;100571.50;5061034;28;20053;-69
2022/12/09 09:31:03;;;;;;;29.45;18.52;;;;;;;8.04;57.38;100594.34;5053203;28;20052;-69
2022/12/09 09:33:32;;;;;;;25.50;15.80;;;;;;;7.97;57.31;100594.34;5065911;28;20041;-69
2022/12/09 09:36:02;;;;;;;30.50;18.73;;;;;;;7.79;57.19;100589.66;5048613;28;20056;-69
2022/12/09 09:38:37;;;;;;;30.98;18.85;;;;;;;7.62;58.96;100591.16;5058693;28;20064;-69
2022/12/09 09:41:15;;;;;;;26.95;17.00;;;;;;;7.45;58.91;100589.94;5066647;28;20065;-69
2022/12/09 09:43:44;;;;;;;26.50;16.10;;;;;;;7.28;59.65;100596.75;5063049;28;20055;-68
2022/12/09 09:46:18;;;;;;;28.02;17.35;;;;;;;7.18;59.47;100583.78;5051122;28;20056;-69
2022/12/09 09:48:47;;;;;;;28.60;16.67;;;;;;;7.27;59.34;100592.44;5061041;28;20120;-69
2022/12/09 09:51:18;;;;;;;27.50;16.75;;;;;;;7.39;59.54;100599.63;5048412;28;20050;-69
2022/12/09 09:53:51;;;;;;;28.42;16.63;;;;;;;7.57;58.76;100593.63;5061517;28;20055;-68
2022/12/09 09:56:27;;;;;;;31.58;16.80;;;;;;;7.68;58.47;100593.00;5052072;28;20064;-68
2022/12/09 09:59:10;;;;;;;33.38;17.98;;;;;;;7.84;58.00;100589.03;5072101;28;20044;-68
2022/12/09 10:01:38;;;;;;;28.05;16.30;;;;;;;8.01;57.65;100578.69;5051928;28;20049;-69
2022/12/09 10:04:14;;;;;;;29.08;16.95;;;;;;;8.01;57.23;100589.41;5054747;28;20056;-68
2022/12/09 10:06:48;;;;;;;27.63;16.35;;;;;;;7.80;57.36;100569.09;5059536;28;20084;-69
2022/12/09 10:09:21;;;;;;;27.63;16.38;;;;;;;7.69;58.05;100586.59;5061441;28;20127;-70
2022/12/09 10:12:00;;;;;;;30.10;17.05;;;;;;;7.51;58.75;100589.13;5064714;28;20163;-69
2022/12/09 10:14:41;;;;;;;30.70;16.63;;;;;;;7.36;58.58;100585.84;5056426;28;20164;-69
2022/12/09 10:17:22;;;;;;;29.35;16.20;;;;;;;7.22;59.48;100584.19;5062928;28;20076;-69
2022/12/09 10:19:54;;;;;;;28.83;15.80;;;;;;;7.14;59.57;100588.72;5052308;28;20046;-69
2022/12/09 10:22:26;;;;;;;26.13;15.85;;;;;;;7.09;59.81;100587.69;5046420;28;20050;-69
2022/12/09 10:24:56;;;;;;;30.88;16.80;;;;;;;7.05;60.05;100592.63;5054442;28;20118;-69
2022/12/09 10:27:30;;;;;;;28.45;17.45;;;;;;;6.99;60.12;100589.97;5055223;28;20108;-70
2022/12/09 10:30:01;;;;;;;28.73;17.73;;;;;;;6.93;60.42;100596.97;5055985;28;20060;-69
2022/12/09 10:32:32;;;;;;;26.77;15.75;;;;;;;6.91;60.70;100590.19;5063659;28;20045;-69
2022/12/09 10:35:11;;;;;;;29.20;16.75;;;;;;;6.87;60.75;100592.44;5062873;28;20498;-69
2022/12/09 10:37:40;;;;;;;28.13;15.23;;;;;;;6.75;61.14;100573.53;5066197;28;20048;-69
2022/12/09 10:40:20;;;;;;;27.48;16.67;;;;;;;6.83;61.82;100588.53;5063871;28;20108;-69
2022/12/09 10:45:45;;;;;;;26.75;14.85;;;;;;;6.77;61.88;100578.66;5052275;28;20077;-69
2022/12/09 10:48:36;;;;;;;29.23;15.25;;;;;;;6.76;61.50;100590.38;5065347;28;20049;-69
2022/12/09 10:51:12;;;;;;;27.08;15.02;;;;;;;6.67;61.91;100576.38;5057681;28;20071;-69
2022/12/09 10:53:46;;;;;;;27.25;16.45;;;;;;;6.75;61.90;100588.72;5063436;28;20051;-69
2022/12/09 10:56:20;;;;;;;30.77;16.08;;;;;;;6.72;62.27;100579.28;5064314;28;20102;-69
2022/12/09 10:58:48;;;;;;;26.50;14.15;;;;;;;6.69;61.84;100594.88;5065661;28;20071;-68
2022/12/09 11:01:18;;;;;;;30.02;15.77;;;;;;;6.69;61.79;100587.69;5064937;28;20057;-69
2022/12/09 11:03:52;;;;;;;28.55;15.38;;;;;;;6.68;62.04;100585.22;5062942;28;20051;-69
2022/12/09 11:06:25;;;;;;;26.05;15.25;;;;;;;6.67;61.81;100581.72;5061691;28;20048;-69
2022/12/09 11:08:56;;;;;;;28.40;15.88;;;;;;;6.67;62.08;100581.72;5065001;28;20052;-68
2022/12/09 11:11:43;;;;;;;26.02;15.00;;;;;;;6.65;62.24;100583.78;5065069;28;20045;-70
2022/12/09 11:14:21;;;;;;;29.92;15.25;;;;;;;6.64;61.38;100582.13;5059579;28;20398;-68
2022/12/09 11:16:53;;;;;;;28.17;15.23;;;;;;;6.64;61.67;100584.81;5063508;28;20115;-69
2022/12/09 11:19:32;;;;;;;27.70;15.13;;;;;;;6.63;62.10;100585.00;5056181;28;20080;-68
2022/12/09 11:22:34;;;;;;;22.42;13.60;;;;;;;6.62;61.86;100578.03;5058768;28;20132;-69
2022/12/09 11:25:18;;;;;;;29.35;14.43;;;;;;;6.61;61.59;100579.03;5018763;28;20140;-68
2022/12/09 11:27:51;;;;;;;27.55;15.52;;;;;;;6.61;62.16;100579.03;5014080;28;20129;-69
2022/12/09 11:30:21;;;;;;;23.50;12.95;;;;;;;6.60;61.73;100572.06;5017622;28;20093;-68
2022/12/09 11:32:59;;;;;;;24.83;14.32;;;;;;;6.59;62.08;100576.56;5009873;28;20065;-68
2022/12/09 11:35:36;;;;;;;24.48;13.15;;;;;;;6.59;61.77;100579.25;5006690;28;20046;-71
2022/12/09 11:38:15;;;;;;;23.88;12.07;;;;;;;6.62;61.36;100578.84;5017132;28;20074;-72